Airfield :
LOGIN :

Register | Disclaimer

   EN    FR    IT 

 










Legend :    VFR   Marginal VFR   IFR   Intensive IFR   Very Intensive IFR
Visi :
Ceiling :
>= 8 km
>= 3000ft
5 to 8 km
1000 to 3000 ft
1500m to 5 km
500 to 1000 ft
800 to 1500m
200 to 500 ft
< 800m
< 200 ft
Symbols :   Thunderstorms  Fog  Heavy snow  Heavy precipitations  Wind > 20 kt
SIGMETs :     Misc.  Thunderstorms  Icing  Turbulence  Mountain Waves  Volcanic Ashes







- Airport Elevation : 257 ft
- IATA code : MAN
- Download approach charts


EGCC - Manchester

CURRENT METAR :
  • 211250Z AUTO 11007KT 040V200 9999 NCD 22/08 Q1010 NOSIG

EXPIRED METARs :
  • 211220Z AUTO 11006KT 020V190 9999 NCD 22/09 Q1011 NOSIG
  • 211150Z AUTO VRB06KT 9999 NCD 22/09 Q1011 NOSIG
  • 211120Z AUTO 12006KT 040V210 9999 NCD 21/08 Q1012 NOSIG
  • 211050Z AUTO 13006KT 060V200 9999 NCD 20/08 Q1012
  • 211020Z AUTO VRB04KT 9999 NCD 19/08 Q1012 NOSIG

TAF TAF EGCC
Valid from the 21 at 12:00 until the 22 at 18:00 UTC


211100Z 2112/2218 12009KT CAVOK
PROB40
TEMPO 2203/2208 4000 +SHRA BKN045CB
BECMG 2210/2213 BKN025
TEMPO 2212/2218 7000 RA
PROB40
TEMPO 2212/2215 3000 +SHRA BKN012 BKN040CB
ATIS : +44 161 499 2324
No reported NOTAMs for that airfield.



MET'MAP, your aeronautical weather chart ! - Copyright ORBIFLY December 2007 - Disclaimer

ORBIFLY MET'MAP TEAM :

Programming & Development : Alexandra Zaïnal
Concept & Development : Baudouin d'Aumeries
Co-Development & Prog : Marc-Olivier Méhu
Technical & hardware support : Manuel Goepfert

Contact : metmap@orbifly.com




SOURCES & CREDITS :

   NOAA